Time;durP1;ratioP1;P1;durP2;ratioP2;P2;SDS_P1;SDS_P2;PMS_P1;PMS_P2;Temp;Humidity;BMP_temperature;BMP_pressure;BME280_temperature;BME280_humidity;BME280_pressure;Samples;Min_cycle;Max_cycle;Signal;HPM_P1;HPM_P2
2022/06/02 00:01:04;;;;;;;15.50;6.50;;;9.40;1.00;;;;;;5076093;28;20486;-84
2022/06/02 00:03:42;;;;;;;8.03;6.23;;;9.50;1.00;;;;;;5075127;28;20743;-83
2022/06/02 00:06:17;;;;;;;11.23;7.07;;;9.40;1.00;;;;;;5075913;28;20435;-84
2022/06/02 00:09:07;;;;;;;6.80;6.10;;;9.50;1.00;;;;;;5074019;28;20446;-77
2022/06/02 00:12:04;;;;;;;6.43;5.90;;;9.50;1.00;;;;;;5076073;28;20765;-81
2022/06/02 00:14:48;;;;;;;6.10;5.50;;;9.50;1.00;;;;;;5075846;28;20394;-84
2022/06/02 00:17:39;;;;;;;7.23;6.53;;;9.50;1.00;;;;;;5075085;28;20423;-78
2022/06/02 00:20:08;;;;;;;12.37;5.20;;;9.40;1.00;;;;;;5055961;28;20516;-84
2022/06/02 00:23:24;;;;;;;7.20;6.60;;;9.50;1.00;;;;;;5068245;28;20406;-77
2022/06/02 00:26:09;;;;;;;5.50;5.10;;;9.40;1.00;;;;;;5034344;28;20415;-77
2022/06/02 00:28:40;;;;;;;5.80;5.20;;;9.30;1.00;;;;;;5071813;28;20435;-84
2022/06/02 00:31:39;;;;;;;7.83;7.13;;;9.30;1.00;;;;;;5075686;28;20853;-77
2022/06/02 00:34:29;;;;;;;6.70;6.00;;;9.30;1.00;;;;;;5074374;28;20462;-77
2022/06/02 00:37:17;;;;;;;12.10;5.90;;;9.30;1.00;;;;;;5073436;28;20410;-77
2022/06/02 00:39:47;;;;;;;9.23;6.33;;;9.30;1.00;;;;;;5074890;28;20511;-83
2022/06/02 00:42:47;;;;;;;6.77;6.10;;;9.30;1.00;;;;;;5075228;28;20489;-77
2022/06/02 00:45:15;;;;;;;5.87;5.37;;;9.20;1.00;;;;;;5074554;28;20427;-77
2022/06/02 00:48:12;;;;;;;12.13;6.20;;;9.20;1.00;;;;;;5072721;28;20819;-81
2022/06/02 00:50:45;;;;;;;6.40;5.90;;;9.20;1.00;;;;;;5068179;28;20792;-83
2022/06/02 00:53:36;;;;;;;4.87;4.53;;;9.10;1.00;;;;;;5074880;28;20423;-83
2022/06/02 00:59:28;;;;;;;6.50;5.90;;;9.10;1.00;;;;;;5074212;28;20969;-77
2022/06/02 01:01:55;;;;;;;7.40;5.43;;;9.00;1.00;;;;;;5074878;28;20454;-84
2022/06/02 01:04:21;;;;;;;6.03;5.37;;;9.00;1.00;;;;;;5072203;28;20461;-77
2022/06/02 01:07:08;;;;;;;5.70;5.10;;;9.00;1.00;;;;;;5072043;28;20397;-77
2022/06/02 01:09:52;;;;;;;5.50;5.00;;;9.00;1.00;;;;;;5073847;28;20424;-77
2022/06/02 01:12:52;;;;;;;6.50;5.87;;;8.90;1.00;;;;;;5074597;28;20429;-84
2022/06/02 01:15:51;;;;;;;5.73;5.20;;;8.90;1.00;;;;;;5074869;28;20842;-77
2022/06/02 01:18:46;;;;;;;5.80;5.30;;;8.90;1.00;;;;;;5072423;28;20940;-77
2022/06/02 01:21:47;;;;;;;6.43;5.83;;;8.90;1.00;;;;;;5074881;28;20469;-84
2022/06/02 01:24:37;;;;;;;6.20;5.47;;;8.80;1.00;;;;;;5073437;28;20443;-84
2022/06/02 01:27:09;;;;;;;5.80;5.20;;;8.80;1.00;;;;;;5074016;28;20430;-78
2022/06/02 01:29:49;;;;;;;6.00;5.50;;;8.80;1.00;;;;;;5073753;28;20439;-77
2022/06/02 01:32:20;;;;;;;5.97;5.47;;;8.80;1.00;;;;;;5073338;28;20474;-84
2022/06/02 01:35:12;;;;;;;5.27;4.87;;;8.70;1.00;;;;;;5074377;28;20948;-77
2022/06/02 01:37:56;;;;;;;5.77;5.23;;;8.70;1.00;;;;;;5072034;28;20418;-83
2022/06/02 01:40:25;;;;;;;6.17;5.57;;;8.70;1.00;;;;;;5074696;28;20453;-78
2022/06/02 01:43:17;;;;;;;6.80;5.40;;;8.70;1.00;;;;;;5074501;28;20926;-77
2022/06/02 01:46:11;;;;;;;5.77;5.10;;;8.60;1.00;;;;;;5073399;28;20415;-78
2022/06/02 01:48:51;;;;;;;5.97;5.53;;;8.60;1.00;;;;;;5061787;28;20436;-77
2022/06/02 01:51:36;;;;;;;6.30;5.70;;;8.50;1.00;;;;;;5071954;28;20785;-77
2022/06/02 01:54:32;;;;;;;6.13;5.53;;;8.40;1.00;;;;;;5074535;28;20439;-82
2022/06/02 01:57:03;;;;;;;5.77;5.20;;;8.40;1.00;;;;;;5073248;28;20427;-78
2022/06/02 02:00:05;;;;;;;6.40;5.80;;;8.30;1.00;;;;;;5073607;28;20477;-77
2022/06/02 02:02:45;;;;;;;5.60;4.87;;;8.30;1.00;;;;;;5070353;28;20434;-77
2022/06/02 02:05:28;;;;;;;6.27;5.60;;;8.30;1.00;;;;;;5074067;28;20742;-81
2022/06/02 02:08:23;;;;;;;5.97;5.37;;;8.30;1.00;;;;;;5072679;28;20456;-83
2022/06/02 02:11:07;;;;;;;5.30;4.60;;;8.30;1.00;;;;;;5074350;28;20416;-84
2022/06/02 02:13:51;;;;;;;5.83;5.20;;;8.20;1.00;;;;;;5054239;28;20490;-83
2022/06/02 02:16:54;;;;;;;5.53;5.07;;;8.20;1.00;;;;;;5056209;28;20424;-83
2022/06/02 02:19:50;;;;;;;6.03;5.43;;;8.20;1.00;;;;;;5073662;28;20463;-77
2022/06/02 02:22:18;;;;;;;5.80;5.33;;;8.20;1.00;;;;;;5072943;28;20781;-77
2022/06/02 02:25:03;;;;;;;6.83;6.17;;;8.30;1.00;;;;;;5072090;28;20971;-84
2022/06/02 02:28:02;;;;;;;5.77;5.27;;;8.30;1.00;;;;;;5072130;28;20455;-83
2022/06/02 02:30:45;;;;;;;11.07;5.77;;;8.30;1.00;;;;;;5071077;28;20933;-77
2022/06/02 02:33:23;;;;;;;7.13;6.43;;;8.40;1.00;;;;;;5073772;28;20413;-77
2022/06/02 02:36:10;;;;;;;6.10;5.53;;;8.40;1.00;;;;;;5073513;28;20887;-84
2022/06/02 02:38:42;;;;;;;6.60;6.03;;;8.40;1.00;;;;;;5072552;28;20443;-83
2022/06/02 02:41:23;;;;;;;7.83;5.73;;;8.40;1.00;;;;;;5073214;28;20437;-83
2022/06/02 02:44:19;;;;;;;6.50;5.90;;;8.40;1.00;;;;;;5072083;28;20438;-83
2022/06/02 02:47:06;;;;;;;6.57;5.70;;;8.40;1.00;;;;;;5072348;28;20407;-77
2022/06/02 02:49:52;;;;;;;6.93;5.50;;;8.40;1.00;;;;;;5072946;28;20434;-83
2022/06/02 02:52:43;;;;;;;7.10;5.23;;;8.40;1.00;;;;;;5072877;28;20815;-77
2022/06/02 02:55:48;;;;;;;6.40;5.73;;;8.30;1.00;;;;;;5070886;28;20781;-77
2022/06/02 02:58:27;;;;;;;6.20;5.70;;;8.40;1.00;;;;;;5070640;28;20447;-83
2022/06/02 03:01:01;;;;;;;9.73;5.83;;;8.40;1.00;;;;;;5072231;28;20498;-83
2022/06/02 03:03:40;;;;;;;6.53;5.80;;;8.50;1.00;;;;;;5073023;28;20418;-83
2022/06/02 03:06:23;;;;;;;7.03;6.03;;;8.50;1.00;;;;;;5072939;28;20412;-84
2022/06/02 03:09:08;;;;;;;12.77;6.07;;;8.60;1.00;;;;;;5072124;28;20436;-77
2022/06/02 03:11:45;;;;;;;6.90;5.60;;;8.60;1.00;;;;;;5072027;28;20430;-77
2022/06/02 03:14:29;;;;;;;6.53;5.40;;;8.60;1.00;;;;;;5072785;28;20422;-77
2022/06/02 03:17:26;;;;;;;6.80;5.90;;;8.70;1.00;;;;;;5070918;28;20433;-77
2022/06/02 03:20:05;;;;;;;6.83;5.70;;;8.70;1.00;;;;;;5071958;28;20468;-81
2022/06/02 03:22:39;;;;;;;9.83;6.40;;;8.80;1.00;;;;;;5069411;28;20422;-77
2022/06/02 03:25:23;;;;;;;11.63;6.30;;;8.80;1.00;;;;;;5073132;28;20448;-84
2022/06/02 03:28:17;;;;;;;6.83;6.10;;;8.90;1.00;;;;;;5069008;28;20436;-83
2022/06/02 03:31:02;;;;;;;6.63;5.87;;;8.80;1.00;;;;;;5072873;28;20413;-83
2022/06/02 03:33:52;;;;;;;5.40;4.90;;;8.80;1.00;;;;;;5072776;28;20518;-83
2022/06/02 03:36:32;;;;;;;5.73;5.20;;;8.90;1.00;;;;;;5072690;28;20408;-77
2022/06/02 03:39:26;;;;;;;5.87;5.27;;;8.80;1.00;;;;;;5064085;28;20413;-83
2022/06/02 03:41:55;;;;;;;5.87;5.37;;;8.90;1.00;;;;;;5071254;28;21052;-83
2022/06/02 03:44:21;;;;;;;5.57;5.10;;;9.00;1.00;;;;;;5069666;28;20490;-77
2022/06/02 03:47:15;;;;;;;7.87;6.87;;;9.00;1.00;;;;;;5070937;28;20400;-81
2022/06/02 03:50:12;;;;;;;8.70;5.60;;;9.10;1.00;;;;;;5072449;28;20214;-83
2022/06/02 03:52:51;;;;;;;7.43;6.13;;;9.10;1.00;;;;;;5072398;28;20411;-83
2022/06/02 03:55:56;;;;;;;6.50;5.53;;;9.20;1.00;;;;;;5072315;28;20464;-82
2022/06/02 03:58:37;;;;;;;8.77;5.57;;;9.20;1.00;;;;;;5071079;28;20530;-81
2022/06/02 04:01:11;;;;;;;6.20;5.60;;;9.30;1.00;;;;;;5070104;28;20443;-78
2022/06/02 04:04:08;;;;;;;6.90;5.67;;;9.30;1.00;;;;;;5072552;28;20390;-77
2022/06/02 04:06:50;;;;;;;7.47;6.17;;;9.40;1.00;;;;;;5071516;28;20426;-77
2022/06/02 04:09:48;;;;;;;6.20;5.60;;;9.40;1.00;;;;;;5070645;28;20995;-77
2022/06/02 04:15:35;;;;;;;7.87;6.00;;;9.50;1.00;;;;;;5068562;28;20394;-83
2022/06/02 04:18:01;;;;;;;7.87;5.87;;;9.50;1.00;;;;;;5070876;28;20930;-76
2022/06/02 04:20:56;;;;;;;6.10;5.50;;;9.50;1.00;;;;;;5072353;28;20458;-77
2022/06/02 04:23:21;;;;;;;5.80;5.20;;;9.60;1.00;;;;;;5070487;28;20278;-76
2022/06/02 04:26:24;;;;;;;6.93;6.23;;;9.70;1.00;;;;;;5072529;28;20406;-75
2022/06/02 04:29:16;;;;;;;5.80;5.30;;;9.70;1.00;;;;;;5071364;28;20192;-81
2022/06/02 04:32:06;;;;;;;6.00;5.40;;;9.70;1.00;;;;;;5071571;28;20423;-79
2022/06/02 04:34:53;;;;;;;6.60;5.73;;;9.70;1.00;;;;;;5068022;28;20402;-75
2022/06/02 04:37:59;;;;;;;6.67;4.30;;;9.60;1.00;;;;;;5071326;28;20411;-75
2022/06/02 04:40:49;;;;;;;5.27;4.77;;;9.70;1.00;;;;;;5065069;28;20466;-76
2022/06/02 04:43:33;;;;;;;5.10;4.60;;;9.80;1.00;;;;;;5075649;28;20403;-75
2022/06/02 04:46:17;;;;;;;5.90;5.30;;;9.90;1.00;;;;;;5075706;28;20455;-83
2022/06/02 04:48:54;;;;;;;5.80;5.30;;;9.90;1.00;;;;;;5073308;28;20492;-75
2022/06/02 04:51:33;;;;;;;5.03;4.63;;;9.90;1.00;;;;;;5075534;28;20407;-81
2022/06/02 04:54:22;;;;;;;9.50;5.90;;;9.90;1.00;;;;;;5074893;28;20393;-75
2022/06/02 04:57:06;;;;;;;5.23;4.80;;;10.00;1.00;;;;;;5074164;28;21210;-83
2022/06/02 04:59:58;;;;;;;5.33;4.40;;;10.00;1.00;;;;;;5074669;28;20434;-75
2022/06/02 05:02:32;;;;;;;6.17;5.60;;;9.90;1.00;;;;;;5065834;28;20420;-80
2022/06/02 05:05:10;;;;;;;6.50;5.50;;;10.00;5.20;;;;;;5073873;28;20425;-76
2022/06/02 05:07:54;;;;;;;6.33;5.43;;;10.00;10.00;;;;;;5073262;28;20399;-77
2022/06/02 05:10:20;;;;;;;6.77;5.70;;;10.00;26.00;;;;;;5075583;28;20412;-83
2022/06/02 05:13:10;;;;;;;6.93;6.23;;;10.00;31.90;;;;;;5073843;28;20877;-83
2022/06/02 05:15:56;;;;;;;5.90;5.33;;;10.10;42.20;;;;;;5075334;28;20169;-76
2022/06/02 05:18:47;;;;;;;6.67;5.90;;;10.10;51.40;;;;;;5072463;28;20770;-82
2022/06/02 05:21:50;;;;;;;6.00;5.40;;;10.20;53.10;;;;;;5073746;28;20430;-84
2022/06/02 05:24:58;;;;;;;5.90;5.13;;;10.20;52.90;;;;;;5040232;28;20757;-76
2022/06/02 05:27:36;;;;;;;6.33;5.57;;;10.20;51.10;;;;;;5069153;28;20407;-82
2022/06/02 05:30:26;;;;;;;5.73;5.20;;;10.20;61.80;;;;;;5074698;28;20415;-84
2022/06/02 05:33:12;;;;;;;6.03;5.47;;;10.30;71.50;;;;;;5069580;28;20390;-74
2022/06/02 05:35:57;;;;;;;5.43;4.70;;;10.40;80.60;;;;;;5074663;28;20734;-75
2022/06/02 05:38:37;;;;;;;7.83;5.07;;;10.50;87.20;;;;;;5071379;28;20450;-76
2022/06/02 05:41:06;;;;;;;5.03;4.53;;;10.60;90.60;;;;;;5074625;28;20455;-82
2022/06/02 05:43:40;;;;;;;5.07;4.57;;;10.60;91.40;;;;;;5074358;28;20387;-83
2022/06/02 05:46:21;;;;;;;9.20;4.23;;;10.60;94.00;;;;;;5074313;28;20390;-83
2022/06/02 05:48:57;;;;;;;4.90;4.47;;;10.70;97.10;;;;;;5072487;28;20967;-74
2022/06/02 05:51:52;;;;;;;6.70;6.10;;;10.70;98.10;;;;;;5072349;28;20497;-75
2022/06/02 05:54:28;;;;;;;5.57;4.87;;;10.80;99.60;;;;;;5065505;28;20451;-81
2022/06/02 05:57:18;;;;;;;9.37;3.43;;;10.80;99.90;;;;;;5073434;28;20709;-82
2022/06/02 05:59:49;;;;;;;4.73;4.20;;;10.90;99.90;;;;;;5072663;28;20434;-75
2022/06/02 06:02:36;;;;;;;4.40;3.97;;;10.90;99.90;;;;;;5073237;28;20407;-80
2022/06/02 06:05:28;;;;;;;4.77;4.30;;;10.90;99.90;;;;;;5074149;28;20770;-75
2022/06/02 06:08:14;;;;;;;4.03;3.73;;;11.00;99.90;;;;;;5070810;28;20403;-81
2022/06/02 06:10:45;;;;;;;4.20;3.40;;;11.00;99.90;;;;;;5074266;28;20449;-82
2022/06/02 06:13:20;;;;;;;6.00;4.60;;;11.10;99.90;;;;;;5073913;28;20399;-75
2022/06/02 06:16:13;;;;;;;4.47;4.07;;;11.20;99.90;;;;;;5073965;28;20398;-77
2022/06/02 06:19:00;;;;;;;4.13;3.80;;;11.20;99.90;;;;;;5069755;28;20464;-76
2022/06/02 06:21:40;;;;;;;4.23;3.93;;;11.30;99.90;;;;;;5071142;28;20427;-80
2022/06/02 06:24:24;;;;;;;3.93;3.63;;;11.30;99.90;;;;;;5068838;28;20431;-73
2022/06/02 06:27:02;;;;;;;4.00;3.70;;;11.40;99.90;;;;;;5072229;28;20419;-81
2022/06/02 06:29:55;;;;;;;3.90;3.60;;;11.50;99.90;;;;;;5073403;28;20441;-81
2022/06/02 06:32:55;;;;;;;3.10;2.90;;;11.50;99.90;;;;;;5073310;28;20471;-80
2022/06/02 06:35:32;;;;;;;3.90;3.60;;;11.50;99.90;;;;;;5071380;28;20408;-82
2022/06/02 06:38:16;;;;;;;3.87;3.57;;;11.40;99.90;;;;;;5071352;28;20426;-82
2022/06/02 06:40:56;;;;;;;5.40;4.20;;;11.30;99.90;;;;;;5072134;28;20426;-75
2022/06/02 06:43:34;;;;;;;4.13;3.83;;;11.30;99.90;;;;;;5073399;28;20425;-82
2022/06/02 06:46:08;;;;;;;4.00;3.30;;;11.40;99.90;;;;;;5073325;28;20390;-75
2022/06/02 06:48:47;;;;;;;3.87;3.50;;;11.30;99.90;;;;;;5070799;28;20435;-75
2022/06/02 06:51:26;;;;;;;5.20;3.47;;;11.30;99.90;;;;;;5073588;28;20433;-81
2022/06/02 06:54:06;;;;;;;3.87;3.37;;;11.20;99.90;;;;;;5072077;28;20403;-82
2022/06/02 06:56:40;;;;;;;6.03;3.90;;;11.20;99.90;;;;;;5071391;28;20391;-80
2022/06/02 06:59:33;;;;;;;9.07;5.03;;;11.30;99.90;;;;;;5073102;28;20427;-75
2022/06/02 07:01:59;;;;;;;3.50;3.30;;;11.40;99.90;;;;;;5072686;28;20480;-75
2022/06/02 07:04:36;;;;;;;6.53;4.00;;;11.40;99.90;;;;;;5073254;28;20914;-79
2022/06/02 07:07:19;;;;;;;4.00;3.70;;;11.50;99.90;;;;;;5071558;28;20178;-74
2022/06/02 07:10:05;;;;;;;4.07;3.77;;;11.70;99.90;;;;;;5071833;28;20440;-75
2022/06/02 07:13:01;;;;;;;4.30;3.60;;;11.60;99.90;;;;;;5073001;28;20409;-78
2022/06/02 07:16:06;;;;;;;7.10;4.77;;;11.60;99.90;;;;;;5073119;28;20397;-76
2022/06/02 07:18:44;;;;;;;3.73;3.43;;;11.50;99.90;;;;;;5067686;28;20455;-81
2022/06/02 07:21:15;;;;;;;3.60;3.33;;;11.50;99.90;;;;;;5071824;28;20422;-75
2022/06/02 07:23:57;;;;;;;4.20;3.27;;;11.50;99.90;;;;;;5073202;28;20515;-79
2022/06/02 07:27:06;;;;;;;4.37;3.90;;;11.50;99.90;;;;;;5069574;28;20387;-76
2022/06/02 07:29:51;;;;;;;7.10;3.50;;;11.50;99.90;;;;;;5052996;28;20414;-82
2022/06/02 07:32:31;;;;;;;4.43;3.17;;;11.60;99.90;;;;;;5053020;28;20376;-78
2022/06/02 07:34:57;;;;;;;8.93;5.00;;;11.60;99.90;;;;;;5052984;28;20754;-82
2022/06/02 07:37:43;;;;;;;3.80;3.50;;;11.60;99.90;;;;;;5051738;28;20427;-82
2022/06/02 07:40:21;;;;;;;6.53;3.93;;;11.60;99.90;;;;;;5051563;28;20195;-82
2022/06/02 07:43:09;;;;;;;7.93;4.07;;;11.50;99.90;;;;;;5051317;28;20938;-76
2022/06/02 07:45:55;;;;;;;6.80;4.27;;;11.60;99.90;;;;;;5051931;28;20483;-72
2022/06/02 07:48:49;;;;;;;8.33;4.20;;;11.70;99.90;;;;;;5051970;28;20430;-74
2022/06/02 07:51:31;;;;;;;3.97;3.67;;;11.80;99.90;;;;;;5052787;28;20384;-74
2022/06/02 07:54:07;;;;;;;7.87;3.70;;;11.90;99.90;;;;;;5051433;28;20408;-75
2022/06/02 07:56:39;;;;;;;6.60;4.50;;;11.90;99.90;;;;;;5051595;28;20879;-74
2022/06/02 07:59:40;;;;;;;4.40;4.00;;;11.90;99.90;;;;;;5051404;28;20433;-76
2022/06/02 08:02:08;;;;;;;5.73;4.90;;;12.00;99.90;;;;;;5030488;28;20396;-72
2022/06/02 08:04:44;;;;;;;5.93;4.20;;;12.20;99.90;;;;;;5048557;28;20441;-79
2022/06/02 08:07:33;;;;;;;5.60;3.60;;;12.20;99.90;;;;;;5051704;28;20401;-73
2022/06/02 08:10:22;;;;;;;6.57;5.30;;;12.20;99.90;;;;;;5052584;28;20891;-76
2022/06/02 08:13:27;;;;;;;6.20;4.93;;;12.20;99.90;;;;;;5052895;28;20906;-77
2022/06/02 08:16:16;;;;;;;7.03;4.27;;;12.20;99.90;;;;;;5058826;28;20403;-79
2022/06/02 08:19:23;;;;;;;5.90;4.70;;;12.10;99.90;;;;;;5075541;28;20422;-73
2022/06/02 08:21:53;;;;;;;6.00;4.23;;;12.10;99.90;;;;;;5065532;28;20463;-80
2022/06/02 08:24:43;;;;;;;9.70;4.60;;;12.20;99.90;;;;;;5076372;28;20855;-76
2022/06/02 08:27:44;;;;;;;6.00;5.17;;;12.10;99.90;;;;;;5075261;28;20391;-73
2022/06/02 08:30:49;;;;;;;4.70;4.30;;;12.00;99.90;;;;;;5075954;28;20438;-79
2022/06/02 08:33:27;;;;;;;6.50;4.70;;;12.00;99.90;;;;;;5073541;28;20910;-75
2022/06/02 08:36:13;;;;;;;8.70;4.47;;;12.00;99.90;;;;;;5075574;28;20469;-80
2022/06/02 08:39:03;;;;;;;5.37;3.90;;;12.00;99.90;;;;;;5073620;28;20962;-75
2022/06/02 08:41:47;;;;;;;8.67;4.80;;;11.90;99.90;;;;;;5075902;28;20536;-73
2022/06/02 08:44:50;;;;;;;8.67;4.30;;;12.00;99.90;;;;;;5075809;28;20436;-80
2022/06/02 08:47:24;;;;;;;7.40;4.20;;;12.00;99.90;;;;;;5074670;28;20390;-74
2022/06/02 08:49:53;;;;;;;5.90;4.50;;;12.00;99.90;;;;;;5071479;28;20771;-83
2022/06/02 08:52:34;;;;;;;5.63;4.30;;;12.00;99.90;;;;;;5074843;28;20403;-80
2022/06/02 08:55:24;;;;;;;5.90;4.57;;;12.10;99.90;;;;;;5060085;28;20414;-74
2022/06/02 08:58:25;;;;;;;7.20;5.83;;;12.10;99.10;;;;;;5059641;28;20388;-80
2022/06/02 09:01:29;;;;;;;8.10;3.93;;;12.10;98.50;;;;;;5071353;28;20461;-73
2022/06/02 09:04:03;;;;;;;9.17;4.60;;;12.10;98.80;;;;;;5082089;28;20808;-80
2022/06/02 09:06:59;;;;;;;9.00;4.10;;;12.10;97.80;;;;;;5073223;28;20426;-77
2022/06/02 09:09:50;;;;;;;13.57;4.20;;;12.10;96.10;;;;;;5073778;28;20438;-74
2022/06/02 09:12:29;;;;;;;5.13;4.10;;;12.10;95.40;;;;;;5074284;28;20391;-79
2022/06/02 09:15:32;;;;;;;5.73;3.90;;;12.10;91.90;;;;;;5075157;28;20418;-81
2022/06/02 09:18:36;;;;;;;5.40;3.97;;;12.10;84.50;;;;;;5074386;28;20443;-80
2022/06/02 09:21:14;;;;;;;7.30;4.17;;;12.10;92.70;;;;;;5073695;28;20444;-73
2022/06/02 09:23:57;;;;;;;14.07;4.30;;;12.30;94.50;;;;;;5075167;28;20395;-80
2022/06/02 09:26:53;;;;;;;9.03;4.53;;;12.40;82.30;;;;;;5055310;28;20422;-74
2022/06/02 09:29:35;;;;;;;6.23;4.00;;;12.40;74.20;;;;;;5074791;28;20526;-80
2022/06/02 09:32:29;;;;;;;7.13;3.90;;;12.30;62.90;;;;;;5074889;28;20818;-81
2022/06/02 09:35:16;;;;;;;5.43;4.30;;;12.40;61.50;;;;;;5073434;28;20896;-73
2022/06/02 09:38:11;;;;;;;9.33;4.27;;;12.40;56.20;;;;;;5053880;28;20372;-80
2022/06/02 09:40:51;;;;;;;14.60;4.00;;;12.50;58.00;;;;;;5070155;28;20489;-73
2022/06/02 09:43:33;;;;;;;4.63;3.87;;;12.60;54.10;;;;;;5074733;28;20415;-79
2022/06/02 09:46:08;;;;;;;5.20;4.20;;;12.60;40.00;;;;;;5073598;28;20406;-74
2022/06/02 09:48:52;;;;;;;4.83;4.37;;;12.60;34.70;;;;;;5073483;28;20391;-80
2022/06/02 09:51:59;;;;;;;7.17;4.63;;;12.70;34.80;;;;;;5055459;28;20412;-79
2022/06/02 09:54:50;;;;;;;7.00;3.70;;;12.90;33.20;;;;;;5074336;28;20768;-73
2022/06/02 09:57:56;;;;;;;7.87;3.57;;;13.00;13.80;;;;;;5073204;28;20412;-72
2022/06/02 10:00:39;;;;;;;4.27;3.87;;;13.20;1.00;;;;;;5074159;28;20426;-72
2022/06/02 10:03:50;;;;;;;3.40;3.20;;;13.30;1.00;;;;;;5073471;28;20408;-73
2022/06/02 10:06:44;;;;;;;7.03;4.17;;;13.40;1.00;;;;;;5052932;28;20449;-78
2022/06/02 10:09:38;;;;;;;3.73;3.20;;;13.60;1.00;;;;;;5067741;28;20477;-78
2022/06/02 10:12:58;;;;;;;11.10;3.43;;;14.10;1.00;;;;;;5072985;28;20920;-79
2022/06/02 10:15:29;;;;;;;3.57;2.93;;;14.70;1.00;;;;;;5075080;28;20417;-80
2022/06/02 10:17:58;;;;;;;4.20;2.97;;;15.10;1.00;;;;;;5072467;28;20443;-72
2022/06/02 10:20:32;;;;;;;5.83;3.03;;;15.20;1.00;;;;;;5073798;28;20470;-80
2022/06/02 10:23:22;;;;;;;4.47;2.90;;;15.40;1.00;;;;;;5074241;28;20392;-71
2022/06/02 10:26:09;;;;;;;4.60;2.90;;;15.00;1.00;;;;;;5072199;28;20425;-74
2022/06/02 10:28:54;;;;;;;3.40;2.67;;;14.60;1.00;;;;;;5073163;28;20891;-79
2022/06/02 10:31:44;;;;;;;3.70;3.50;;;14.50;1.00;;;;;;5053959;28;20405;-74
2022/06/02 10:34:54;;;;;;;5.83;3.70;;;14.40;1.00;;;;;;5054710;28;20401;-80
2022/06/02 10:37:37;;;;;;;5.23;2.93;;;14.50;1.00;;;;;;5071490;28;20378;-72
2022/06/02 10:40:03;;;;;;;8.57;3.13;;;14.60;1.00;;;;;;5072112;28;20466;-80
2022/06/02 10:42:34;;;;;;;6.60;3.30;;;14.60;1.00;;;;;;5073443;28;20487;-80
2022/06/02 10:45:19;;;;;;;6.50;3.93;;;14.40;1.00;;;;;;5072350;28;20504;-80
2022/06/02 10:47:53;;;;;;;7.00;4.80;;;14.10;1.00;;;;;;5072690;28;20789;-80
2022/06/02 10:50:32;;;;;;;8.43;3.70;;;14.00;1.00;;;;;;5073184;28;20883;-82
2022/06/02 10:53:41;;;;;;;3.57;3.27;;;13.90;99.90;;;;;;5073327;28;20416;-81
2022/06/02 10:56:08;;;;;;;4.63;3.30;;;14.00;99.90;;;;;;5073242;28;20378;-82
2022/06/02 10:59:04;;;;;;;8.20;3.53;;;14.30;99.90;;;;;;5070653;28;20637;-82
2022/06/02 11:01:50;;;;;;;4.00;3.37;;;14.30;99.90;;;;;;5053374;28;20457;-79
2022/06/02 11:04:27;;;;;;;6.10;3.90;;;14.40;99.90;;;;;;5053607;28;21221;-75
2022/06/02 11:07:48;;;;;;;8.40;3.47;;;14.30;99.90;;;;;;5052518;28;20499;-72
2022/06/02 11:10:27;;;;;;;3.70;3.37;;;14.30;99.90;;;;;;5053923;28;20403;-74
2022/06/02 11:13:04;;;;;;;5.97;3.23;;;14.30;99.90;;;;;;5055044;28;20417;-77
2022/06/02 11:15:57;;;;;;;7.20;4.00;;;14.70;99.90;;;;;;5071644;28;20466;-72
2022/06/02 11:18:52;;;;;;;3.87;3.17;;;15.40;99.90;;;;;;5070775;28;20421;-72
2022/06/02 11:21:36;;;;;;;3.13;2.43;;;15.90;99.90;;;;;;5072554;28;20480;-81
2022/06/02 11:24:32;;;;;;;6.23;2.70;;;16.40;99.90;;;;;;5073187;28;20520;-78
2022/06/02 11:27:29;;;;;;;2.37;2.17;;;17.40;99.90;;;;;;5050866;28;20475;-80
2022/06/02 11:30:20;;;;;;;4.70;2.47;;;17.80;99.90;;;;;;5055680;28;20459;-72
2022/06/02 11:33:01;;;;;;;4.70;2.30;;;17.50;99.90;;;;;;5070924;28;20944;-80
2022/06/02 11:35:57;;;;;;;4.40;2.70;;;17.40;99.90;;;;;;5071766;28;20465;-80
2022/06/02 11:38:56;;;;;;;2.20;2.10;;;17.70;99.90;;;;;;5071963;28;20421;-79
2022/06/02 11:41:35;;;;;;;2.60;2.03;;;17.40;99.90;;;;;;5072658;28;20541;-80
2022/06/02 11:44:37;;;;;;;3.10;2.43;;;17.20;99.90;;;;;;5072452;28;20823;-77
2022/06/02 11:47:28;;;;;;;2.57;2.37;;;17.30;99.90;;;;;;5034142;28;20433;-78
2022/06/02 11:50:02;;;;;;;8.20;2.93;;;17.00;99.90;;;;;;5065657;28;20456;-72
2022/06/02 11:52:36;;;;;;;5.07;2.87;;;16.70;99.90;;;;;;5075220;28;20434;-79
2022/06/02 11:55:09;;;;;;;4.20;3.53;;;16.20;99.90;;;;;;5076589;28;20427;-73
2022/06/02 11:58:05;;;;;;;5.00;3.20;;;15.90;99.90;;;;;;5074882;28;20465;-80
2022/06/02 12:00:31;;;;;;;3.00;2.80;;;16.30;99.90;;;;;;5061626;28;20543;-72
2022/06/02 12:03:18;;;;;;;3.60;2.53;;;16.80;99.90;;;;;;5072082;28;20869;-74
2022/06/02 12:06:03;;;;;;;4.30;2.67;;;17.10;99.90;;;;;;5075691;28;20482;-73
2022/06/02 12:09:06;;;;;;;5.57;2.77;;;17.10;99.90;;;;;;5075461;28;20916;-72
2022/06/02 12:11:50;;;;;;;6.47;3.23;;;18.00;99.90;;;;;;5054439;28;20436;-80
2022/06/02 12:14:30;;;;;;;2.63;2.43;;;17.80;99.90;;;;;;5061777;28;20905;-72
2022/06/02 12:17:21;;;;;;;5.43;3.30;;;17.50;99.90;;;;;;5074204;28;20448;-79
2022/06/02 12:20:24;;;;;;;8.47;2.83;;;17.60;99.90;;;;;;5074711;28;20502;-72
2022/06/02 12:23:17;;;;;;;1.77;1.67;;;17.40;99.90;;;;;;5076270;28;20405;-72
2022/06/02 12:25:48;;;;;;;5.00;2.17;;;16.70;99.90;;;;;;5075242;28;20424;-71
2022/06/02 12:28:20;;;;;;;2.70;2.17;;;16.30;99.90;;;;;;5073896;28;20436;-80
2022/06/02 12:31:23;;;;;;;4.57;2.50;;;16.20;99.90;;;;;;5074425;28;20427;-80
2022/06/02 12:34:26;;;;;;;3.10;2.60;;;16.10;99.90;;;;;;5054303;28;20460;-73
2022/06/02 12:37:10;;;;;;;7.90;2.27;;;16.00;99.90;;;;;;5073785;28;20784;-74
2022/06/02 12:40:11;;;;;;;3.10;2.40;;;16.40;99.90;;;;;;5075627;28;20796;-80
2022/06/02 12:43:05;;;;;;;3.30;2.80;;;16.50;99.90;;;;;;5076111;28;20960;-79
2022/06/02 12:45:48;;;;;;;7.33;2.20;;;16.50;99.90;;;;;;5063531;28;20841;-79
2022/06/02 12:49:04;;;;;;;7.60;2.97;;;16.40;99.90;;;;;;5073497;28;20906;-73
2022/06/02 12:51:58;;;;;;;3.40;2.50;;;16.30;99.90;;;;;;5054123;28;20473;-73
2022/06/02 12:54:45;;;;;;;5.10;2.73;;;16.20;99.90;;;;;;5055700;28;20393;-81
2022/06/02 12:57:29;;;;;;;8.30;3.20;;;16.10;99.90;;;;;;5058438;28;20433;-75
2022/06/02 13:00:07;;;;;;;7.63;2.80;;;16.20;99.90;;;;;;5071915;28;20519;-76
2022/06/02 13:02:54;;;;;;;6.10;2.93;;;15.90;99.90;;;;;;5075468;28;20507;-74
2022/06/02 13:05:40;;;;;;;2.33;2.10;;;15.80;99.90;;;;;;5075608;28;20396;-80
2022/06/02 13:08:28;;;;;;;3.00;2.80;;;15.80;99.90;;;;;;5069247;28;20455;-74
2022/06/02 13:11:29;;;;;;;6.63;2.87;;;15.80;99.90;;;;;;5054743;28;20498;-81
2022/06/02 13:14:32;;;;;;;2.97;2.67;;;15.80;99.90;;;;;;5074165;28;20443;-75
2022/06/02 13:17:16;;;;;;;2.83;2.60;;;15.80;99.90;;;;;;5074264;28;20769;-79
2022/06/02 13:19:50;;;;;;;4.90;2.90;;;15.50;99.90;;;;;;5073053;28;20525;-81
2022/06/02 13:22:28;;;;;;;3.33;2.30;;;15.10;99.90;;;;;;5074757;28;20412;-81
2022/06/02 13:25:23;;;;;;;9.37;3.53;;;15.00;99.90;;;;;;5075298;28;20392;-79
2022/06/02 13:28:15;;;;;;;3.70;2.77;;;15.00;99.90;;;;;;5072482;28;20797;-81
2022/06/02 13:31:25;;;;;;;4.43;3.37;;;15.20;99.90;;;;;;5055158;28;20466;-78
2022/06/02 13:34:07;;;;;;;3.13;2.50;;;15.30;99.90;;;;;;5054454;28;20417;-81
2022/06/02 13:36:53;;;;;;;7.23;2.80;;;15.30;99.90;;;;;;5055363;28;20471;-82
2022/06/02 13:39:48;;;;;;;5.53;3.37;;;15.20;99.90;;;;;;5073610;28;20431;-80
2022/06/02 13:42:22;;;;;;;3.00;2.70;;;15.20;99.90;;;;;;5074227;28;20456;-72
2022/06/02 13:45:25;;;;;;;6.90;2.73;;;15.40;99.90;;;;;;5075507;28;20439;-66
2022/06/02 13:48:33;;;;;;;6.27;2.50;;;15.50;99.90;;;;;;5073065;28;20423;-74
2022/06/02 13:51:56;;;;;;;3.00;2.80;;;15.50;99.90;;;;;;5074846;28;20450;-76
2022/06/02 13:57:44;;;;;;;7.80;2.67;;;15.30;99.90;;;;;;5059411;28;20395;-73
2022/06/02 14:00:22;;;;;;;5.57;3.00;;;15.40;99.90;;;;;;5073211;28;20968;-71
2022/06/02 14:03:18;;;;;;;5.40;2.87;;;15.50;99.90;;;;;;5074226;28;20417;-72
2022/06/02 14:06:05;;;;;;;3.40;2.90;;;15.70;99.90;;;;;;5074411;28;20401;-75
2022/06/02 14:08:40;;;;;;;6.03;2.77;;;15.90;99.90;;;;;;5069019;28;20452;-74
2022/06/02 14:11:33;;;;;;;3.57;2.57;;;16.10;99.90;;;;;;5072969;28;20423;-67
2022/06/02 14:14:28;;;;;;;10.37;3.97;;;16.40;99.90;;;;;;5074308;28;20413;-68
2022/06/02 14:16:54;;;;;;;2.37;2.17;;;16.60;99.90;;;;;;5066000;28;20437;-78
2022/06/02 14:19:38;;;;;;;5.53;2.97;;;16.80;99.90;;;;;;5075510;28;20464;-80
2022/06/02 14:22:41;;;;;;;3.77;2.80;;;16.80;99.90;;;;;;5065968;28;20284;-71
2022/06/02 14:25:07;;;;;;;3.70;3.00;;;16.90;99.90;;;;;;5067946;28;20458;-64
2022/06/02 14:27:38;;;;;;;7.33;3.30;;;16.90;99.90;;;;;;5069034;28;20416;-66
2022/06/02 14:30:14;;;;;;;3.97;3.30;;;16.80;99.90;;;;;;5073610;28;20253;-77
2022/06/02 14:32:58;;;;;;;5.70;2.97;;;17.00;99.90;;;;;;5061526;28;20847;-65
2022/06/02 14:35:46;;;;;;;3.70;2.77;;;17.10;99.90;;;;;;5055854;28;21121;-66
2022/06/02 14:38:24;;;;;;;8.00;2.63;;;17.00;99.90;;;;;;5059617;28;20452;-67
2022/06/02 14:41:05;;;;;;;4.60;2.70;;;17.00;99.90;;;;;;5067649;28;20487;-68